Littleton, CO (80120)

10:49 AM MST on February 21, 2017 (GMT -0700)
W Caley Ave | | Change Station
Active Advisory: Fire Weather Warning

Elev 5495 ft 39.60 °N, 104.99 °W | Updated 6 seconds ago

Clear
Clear
69.0 °F
Feels Like 69.0 °F
N
5.0
Wind Variable Wind from West

Today
High -- | Low -- °F
--% Chance of Precip.
Yesterday
High -- | Low -- °F
Precip. -- in
Pressure 30.01 in
Visibility 10.0 miles
Clouds Few 10000 ft
Dew Point 19 °F
Humidity 15%
Rainfall 0.00 in
Snow Depth Not available.
6:43 AM 5:43 PM
Waning Crescent, 24% visible
METAR KAPA 211653Z 26013G20KT 10SM FEW100 17/M09 A3011 RMK AO2 PK WND 25031/1610 SLP160 T01721089
Pressure 30.01 in
Visibility 10.0 miles
Clouds Few 10000 ft
Dew Point 19 °F
Humidity 15%
Rainfall 0.00 in
Snow Depth Not available.
6:43 AM 5:43 PM
Waning Crescent, 24% visible
METAR KAPA 211653Z 26013G20KT 10SM FEW100 17/M09 A3011 RMK AO2 PK WND 25031/1610 SLP160 T01721089

Get Your Daily Forecast Email!

Thanks for signing up!

Be on the lookout for a verification email in your inbox.

You'll start receiving the daily forecast at 8 AM.

×

10-Day Weather Forecast

Almanac

Astronomy

Feb. 21, 2017 Rise Set
Actual Time
Civil Twilight
Nautical Twilight
Astronomical Twilight
Moon
Length of Visible Light
Length of Day
Tomorrow will be .
, % of the Moon is Illuminated

Today's Extremes

State Highs State Lows

Community

WunderPhotos

Upload Photos

1,962,540 photos uploaded!

WunderBlog® & News

Nearby

Air Quality

  Air Quality AQ Index Pollutant
Not available.

Snow Depth

Station Depth Elevation

Earthquake Activity

City Distance Mag. Time & Date
Minimum magnitude displayed is 2.5.

Coastal Water Temperatures

Place Temperature

Stations

Nearby Weather Stations

Station Location Temp. Windchill Dew Point Humidity Wind Precip. Elev Updated Type
                   

Watches & Warnings

Fire Weather Warning
Issued: 6:07 AM MST Feb. 21, 2017 – National Weather Service

... Red flag warning remains in effect from 11 am this morning to
6 PM MST this evening for wind and low relative humidity for the
I-25 corridor... northeast and east Central Plains...

* affected area... fire weather zones 238... 239... 240... 241...
242... 243... 244... 245... 246... 247... 248... 249... 250 and 251.

* Timing... fire danger will increase by noon on Tuesday and
continue into early Tuesday evening.

* Winds... west 15 to 25 mph with gusts up to 45 mph.

* Relative humidity... as low as 11 percent.

* Impacts... if a fire starts, it will be capable of spreading
rapidly through grasses and brush due to the strong winds.

Precautionary/preparedness actions...

A red flag warning means that critical fire weather conditions
are either occurring now... .or will shortly. A combination of
strong winds... low relative humidity... and unseasonably warm
temperatures will contribute to extreme fire behavior.